Terminal Aerodrome Forecast
Issued by NWS

Home | Current Version | Previous Version | Text Only | Print | Product List | Glossary On
Versions: 1 2 3 4 5 6 7 8 9 10 11 12
223
FTUS45 KRIW 020528
TAFWRL
TAF
KWRL 020528Z 0206/0306 19006KT P6SM SCT250
     FM021500 VRB05KT P6SM BKN250
     FM022000 35009KT P6SM FEW080 BKN250
     FM030500 VRB05KT P6SM SCT250=

USA.gov is the U.S. government's official web portal to all federal, state and local government web resources and services.